createdAt,value
2017-11-19T00:01:49.190Z,5.37
2017-11-19T00:04:17.441Z,4.00
2017-11-19T00:06:44.911Z,5.82
2017-11-19T00:09:12.461Z,6.73
2017-11-19T00:11:39.919Z,5.10
2017-11-19T00:14:07.694Z,3.90
2017-11-19T00:16:35.483Z,5.30
2017-11-19T00:19:03.082Z,5.43
2017-11-19T00:21:32.188Z,4.97
2017-11-19T00:24:03.047Z,6.07
2017-11-19T00:26:30.505Z,5.22
2017-11-19T00:28:57.955Z,5.18
2017-11-19T00:31:26.937Z,6.00
2017-11-19T00:33:54.730Z,5.17
2017-11-19T00:36:22.185Z,5.17
2017-11-19T00:38:50.567Z,5.90
2017-11-19T00:41:18.038Z,6.80
2017-11-19T00:43:45.498Z,4.57
2017-11-19T00:46:12.953Z,6.30
2017-11-19T00:48:40.394Z,5.75
2017-11-19T00:51:08.143Z,6.55
2017-11-19T00:53:35.627Z,6.43
2017-11-19T00:56:04.783Z,5.33
2017-11-19T00:58:32.222Z,7.90
2017-11-19T01:00:59.656Z,6.50
2017-11-19T01:03:27.140Z,6.57
2017-11-19T01:05:54.718Z,7.83
2017-11-19T01:08:22.178Z,7.18
2017-11-19T01:10:49.651Z,7.27
2017-11-19T01:13:18.026Z,8.45
2017-11-19T01:15:47.030Z,7.53
2017-11-19T01:18:14.470Z,8.60
2017-11-19T01:20:41.907Z,8.55
2017-11-19T01:23:12.767Z,9.20
2017-11-19T01:25:40.530Z,7.57
2017-11-19T01:28:07.993Z,7.23
2017-11-19T01:30:35.502Z,7.60
2017-11-19T01:33:02.930Z,7.60
2017-11-19T01:35:30.387Z,8.03
2017-11-19T01:37:58.059Z,8.52
2017-11-19T01:40:25.522Z,6.73
2017-11-19T01:42:53.081Z,8.17
2017-11-19T01:45:21.990Z,8.10
2017-11-19T01:47:49.432Z,6.10
2017-11-19T01:50:16.938Z,7.57
2017-11-19T01:52:44.408Z,7.10
2017-11-19T01:55:11.842Z,8.37
2017-11-19T01:57:40.208Z,8.00
2017-11-19T02:00:07.678Z,7.90
2017-11-19T02:02:35.315Z,7.30
2017-11-19T02:05:02.930Z,7.05
2017-11-19T02:07:30.371Z,8.10
2017-11-19T02:10:00.240Z,7.97
2017-11-19T02:12:27.710Z,8.37
2017-11-19T02:14:55.350Z,7.63
2017-11-19T02:17:22.802Z,8.80
2017-11-19T02:19:50.257Z,7.87
2017-11-19T02:22:18.658Z,7.60
2017-11-19T02:24:46.215Z,8.10
2017-11-19T02:27:13.653Z,7.97
2017-11-19T02:29:41.092Z,6.97
2017-11-19T02:32:09.509Z,8.80
2017-11-19T02:34:37.514Z,8.20
2017-11-19T02:37:09.059Z,6.65
2017-11-19T02:39:36.496Z,8.98
2017-11-19T02:42:03.974Z,8.17
2017-11-19T02:44:32.370Z,6.60
2017-11-19T02:47:00.123Z,7.40
2017-11-19T02:49:27.572Z,7.20
2017-11-19T02:51:55.231Z,7.40
2017-11-19T02:54:22.674Z,6.83
2017-11-19T02:56:50.129Z,6.93
2017-11-19T02:59:17.579Z,6.70
2017-11-19T03:01:45.034Z,6.67
2017-11-19T03:04:12.622Z,6.30
2017-11-19T03:06:41.616Z,5.90
2017-11-19T03:09:12.469Z,6.07
2017-11-19T03:11:40.084Z,6.40
2017-11-19T03:14:07.555Z,6.87
2017-11-19T03:16:36.575Z,7.60
2017-11-19T03:19:04.063Z,6.87
2017-11-19T03:21:31.537Z,5.60
2017-11-19T03:23:59.047Z,6.20
2017-11-19T03:26:26.490Z,6.30
2017-11-19T03:28:54.747Z,6.15
2017-11-19T03:31:22.179Z,5.40
2017-11-19T03:33:49.614Z,4.70
2017-11-19T03:36:17.119Z,5.78
2017-11-19T03:38:47.970Z,5.00
2017-11-19T03:41:15.404Z,5.40
2017-11-19T03:43:42.991Z,4.77
2017-11-19T03:46:10.447Z,4.90
2017-11-19T03:48:39.418Z,5.00
2017-11-19T03:51:06.886Z,3.37
2017-11-19T03:53:34.329Z,3.60
2017-11-19T03:56:01.815Z,4.20
2017-11-19T03:58:29.662Z,3.43
2017-11-19T04:00:57.998Z,2.90
2017-11-19T04:03:25.454Z,3.00
2017-11-19T04:05:52.910Z,3.37
2017-11-19T04:08:20.386Z,2.63
2017-11-19T04:10:47.930Z,3.83
2017-11-19T04:13:17.282Z,3.03
2017-11-19T04:15:44.855Z,3.40
2017-11-19T04:18:12.314Z,3.20
2017-11-19T04:20:39.769Z,3.20
2017-11-19T04:23:07.218Z,3.20
2017-11-19T04:25:34.897Z,3.00
2017-11-19T04:28:02.462Z,3.07
2017-11-19T04:30:29.921Z,3.00
2017-11-19T04:32:57.379Z,3.40
2017-11-19T04:35:26.310Z,2.50
2017-11-19T04:37:53.775Z,3.27
2017-11-19T04:40:21.240Z,3.83
2017-11-19T04:42:48.947Z,3.30
2017-11-19T04:45:17.147Z,3.78
2017-11-19T04:47:44.805Z,3.92
2017-11-19T04:50:13.010Z,4.07
2017-11-19T04:52:40.438Z,4.67
2017-11-19T04:55:11.091Z,4.25
2017-11-19T04:57:39.450Z,3.40
2017-11-19T05:00:06.910Z,3.70
2017-11-19T05:02:34.346Z,3.00
2017-11-19T05:05:02.600Z,3.73
2017-11-19T05:07:30.255Z,3.90
2017-11-19T05:09:59.301Z,3.55
2017-11-19T05:12:26.771Z,3.70
2017-11-19T05:14:54.238Z,4.10
2017-11-19T05:17:21.698Z,5.03
2017-11-19T05:19:49.350Z,4.00
2017-11-19T05:22:17.753Z,3.65
2017-11-19T05:24:45.193Z,2.97
2017-11-19T05:27:12.784Z,4.72
2017-11-19T05:29:40.405Z,3.27
2017-11-19T05:32:07.866Z,4.37
2017-11-19T05:34:35.316Z,4.35
2017-11-19T05:37:02.794Z,4.65
2017-11-19T05:39:31.165Z,3.92
2017-11-19T05:41:58.610Z,3.25
2017-11-19T05:44:26.109Z,4.27
2017-11-19T05:46:53.783Z,3.43
2017-11-19T05:49:21.218Z,3.60
2017-11-19T05:51:49.182Z,4.20
2017-11-19T05:54:16.623Z,3.63
2017-11-19T05:56:47.172Z,4.65
2017-11-19T05:59:15.810Z,4.20
2017-11-19T06:01:43.282Z,4.50
2017-11-19T06:04:10.759Z,3.93
2017-11-19T06:06:38.437Z,4.70
2017-11-19T06:09:05.986Z,4.80
2017-11-19T06:11:33.421Z,3.67
2017-11-19T06:14:00.913Z,3.90
2017-11-19T06:16:29.183Z,4.43
2017-11-19T06:18:56.621Z,3.83
2017-11-19T06:21:24.106Z,2.47
2017-11-19T06:23:51.543Z,3.65
2017-11-19T06:26:22.182Z,2.60
2017-11-19T06:28:49.613Z,3.23
2017-11-19T06:31:17.066Z,3.33
2017-11-19T06:33:44.510Z,2.42
2017-11-19T06:36:12.867Z,3.37
2017-11-19T06:38:40.975Z,1.93
2017-11-19T06:41:12.169Z,3.37
2017-11-19T06:43:39.590Z,2.90
2017-11-19T06:46:08.589Z,2.87
2017-11-19T06:48:36.057Z,3.77
2017-11-19T06:51:03.540Z,3.10
2017-11-19T06:53:31.311Z,2.92
2017-11-19T06:55:58.787Z,2.05
2017-11-19T06:58:26.985Z,2.15
2017-11-19T07:00:54.479Z,1.60
2017-11-19T07:03:21.935Z,1.95
2017-11-19T07:05:50.156Z,1.80
2017-11-19T07:08:17.744Z,1.62
2017-11-19T07:10:46.122Z,1.53
2017-11-19T07:13:13.591Z,1.40
2017-11-19T07:15:41.058Z,1.43
2017-11-19T07:18:09.173Z,1.73
2017-11-19T07:20:36.690Z,1.20
2017-11-19T07:23:05.391Z,1.60
2017-11-19T07:25:32.834Z,1.80
2017-11-19T07:28:03.368Z,1.93
2017-11-19T07:30:30.840Z,1.50
2017-11-19T07:32:58.447Z,1.90
2017-11-19T07:35:25.914Z,1.57
2017-11-19T07:37:55.038Z,2.07
2017-11-19T07:40:22.662Z,1.70
2017-11-19T07:42:56.939Z,2.13
2017-11-19T07:45:26.082Z,2.13
2017-11-19T07:47:53.548Z,2.42
2017-11-19T07:50:21.046Z,2.00
2017-11-19T07:52:50.166Z,1.50
2017-11-19T07:55:17.611Z,1.40
2017-11-19T07:57:48.189Z,1.43
2017-11-19T08:00:15.647Z,1.50
2017-11-19T08:02:43.108Z,1.70
2017-11-19T08:05:10.553Z,1.20
2017-11-19T08:07:38.002Z,1.30
2017-11-19T08:10:05.470Z,1.50
2017-11-19T08:12:37.187Z,1.80
2017-11-19T08:15:04.680Z,1.05
2017-11-19T08:17:32.094Z,2.20
2017-11-19T08:19:59.565Z,2.20
2017-11-19T08:22:27.004Z,2.10
2017-11-19T08:24:54.439Z,1.83
2017-11-19T08:27:21.886Z,1.80
2017-11-19T08:29:59.845Z,2.20
2017-11-19T08:32:27.274Z,2.40
2017-11-19T08:34:54.735Z,2.10
2017-11-19T08:37:22.182Z,3.35
2017-11-19T08:39:49.721Z,3.00
2017-11-19T08:42:17.149Z,2.10
2017-11-19T08:44:48.322Z,3.60
2017-11-19T08:47:16.090Z,3.30
2017-11-19T08:49:45.054Z,2.70
2017-11-19T08:52:12.491Z,3.30
2017-11-19T08:54:39.925Z,3.60
2017-11-19T08:57:07.998Z,2.30
2017-11-19T08:59:35.468Z,4.30
2017-11-19T09:02:02.990Z,2.33
2017-11-19T09:04:30.459Z,4.70
2017-11-19T09:06:57.918Z,2.72
2017-11-19T09:09:27.294Z,3.93
2017-11-19T09:11:54.785Z,3.57
2017-11-19T09:14:27.621Z,3.03
2017-11-19T09:16:55.051Z,3.30
2017-11-19T09:19:22.482Z,2.10
2017-11-19T09:21:50.713Z,2.10
2017-11-19T09:24:18.367Z,4.15
2017-11-19T09:26:46.923Z,3.35
2017-11-19T09:29:14.359Z,3.40
2017-11-19T09:31:41.971Z,2.20
2017-11-19T09:34:09.410Z,2.50
2017-11-19T09:36:36.901Z,1.70
2017-11-19T09:39:04.787Z,2.20
2017-11-19T09:41:33.203Z,2.03
2017-11-19T09:44:00.622Z,1.93
2017-11-19T09:46:28.860Z,2.20
2017-11-19T09:48:56.326Z,1.97
2017-11-19T09:51:23.970Z,2.20
2017-11-19T09:53:51.434Z,1.97
2017-11-19T09:56:20.152Z,1.70
2017-11-19T09:58:47.637Z,2.05
2017-11-19T10:01:15.679Z,1.20
2017-11-19T10:03:44.050Z,2.00
2017-11-19T10:06:11.849Z,1.70
2017-11-19T10:08:40.074Z,1.17
2017-11-19T10:11:07.810Z,1.47
2017-11-19T10:13:35.280Z,2.27
2017-11-19T10:16:03.398Z,1.80
2017-11-19T10:18:31.609Z,1.90
2017-11-19T10:20:59.090Z,1.85
2017-11-19T10:23:26.546Z,1.70
2017-11-19T10:25:54.186Z,2.03
2017-11-19T10:28:22.511Z,2.22
2017-11-19T10:30:49.950Z,2.85
2017-11-19T10:33:17.430Z,2.00
2017-11-19T10:35:44.874Z,2.87
2017-11-19T10:38:12.334Z,2.42
2017-11-19T10:40:39.804Z,2.20
2017-11-19T10:43:07.230Z,3.78
2017-11-19T10:45:39.202Z,3.47
2017-11-19T10:48:06.660Z,2.50
2017-11-19T10:50:34.134Z,2.70
2017-11-19T10:53:01.578Z,1.90
2017-11-19T10:55:29.064Z,1.00
2017-11-19T10:57:56.697Z,1.23
2017-11-19T11:00:26.115Z,1.97
2017-11-19T11:02:53.562Z,1.83
2017-11-19T11:05:21.030Z,1.98
2017-11-19T11:07:48.642Z,1.80
2017-11-19T11:10:16.134Z,1.58
2017-11-19T11:12:43.579Z,2.10
2017-11-19T11:15:16.962Z,2.27
2017-11-19T11:17:45.682Z,2.80
2017-11-19T11:20:13.150Z,2.00
2017-11-19T11:22:40.593Z,2.33
2017-11-19T11:25:08.132Z,2.90
2017-11-19T11:27:35.806Z,1.90
2017-11-19T11:30:04.194Z,2.10
2017-11-19T11:32:31.638Z,3.10
2017-11-19T11:34:59.109Z,2.90
2017-11-19T11:37:26.738Z,3.00
2017-11-19T11:39:54.322Z,2.10
2017-11-19T11:42:21.786Z,1.87
2017-11-19T11:44:49.236Z,2.35
2017-11-19T11:47:19.778Z,2.80
2017-11-19T11:49:52.443Z,1.85
2017-11-19T11:52:20.192Z,2.30
2017-11-19T11:54:49.359Z,1.30
2017-11-19T11:57:16.819Z,1.83
2017-11-19T11:59:44.250Z,2.70
2017-11-19T12:02:16.484Z,1.90
2017-11-19T12:04:43.906Z,2.10
2017-11-19T12:07:11.358Z,2.47
2017-11-19T12:09:38.827Z,3.10
2017-11-19T12:12:06.306Z,3.10
2017-11-19T12:14:33.932Z,2.20
2017-11-19T12:17:04.591Z,3.03
2017-11-19T12:19:33.801Z,2.60
2017-11-19T12:22:01.275Z,3.50
2017-11-19T12:24:29.470Z,2.70
2017-11-19T12:26:57.185Z,2.00
2017-11-19T12:29:24.627Z,2.97
2017-11-19T12:31:56.724Z,2.15
2017-11-19T12:34:27.974Z,2.47
2017-11-19T12:36:55.458Z,2.00
2017-11-19T12:39:22.939Z,1.92
2017-11-19T12:41:50.385Z,2.53
2017-11-19T12:44:17.826Z,2.20
2017-11-19T12:46:46.060Z,2.60
2017-11-19T12:49:13.523Z,2.63
2017-11-19T12:51:40.965Z,4.97
2017-11-19T12:54:08.601Z,2.28
2017-11-19T12:56:36.731Z,2.30
2017-11-19T12:59:04.166Z,3.03
2017-11-19T13:01:32.364Z,2.90
2017-11-19T13:04:03.487Z,3.57
2017-11-19T13:06:32.446Z,1.87
2017-11-19T13:08:59.914Z,2.00
2017-11-19T13:11:27.411Z,2.50
2017-11-19T13:13:54.837Z,2.58
2017-11-19T13:16:22.815Z,3.37
2017-11-19T13:18:53.750Z,2.42
2017-11-19T13:21:21.183Z,2.77
2017-11-19T13:23:48.631Z,2.03
2017-11-19T13:26:16.098Z,2.00
2017-11-19T13:28:43.546Z,1.90
2017-11-19T13:31:11.038Z,2.45
2017-11-19T13:33:38.469Z,2.23
2017-11-19T13:36:05.918Z,2.37
2017-11-19T13:38:33.389Z,1.95
2017-11-19T13:41:00.846Z,1.95
2017-11-19T13:43:29.106Z,1.62
2017-11-19T13:45:56.541Z,2.50
2017-11-19T13:48:28.458Z,1.87
2017-11-19T13:50:56.088Z,1.93
2017-11-19T13:53:23.986Z,2.15
2017-11-19T13:55:51.446Z,1.30
2017-11-19T13:58:18.907Z,1.33
2017-11-19T14:00:46.377Z,1.30
2017-11-19T14:03:13.846Z,1.05
2017-11-19T14:05:41.291Z,1.67
2017-11-19T14:08:08.753Z,1.43
2017-11-19T14:10:36.234Z,1.47
2017-11-19T14:13:03.721Z,1.47
2017-11-19T14:15:32.602Z,1.67
2017-11-19T14:18:00.054Z,1.97
2017-11-19T14:20:32.046Z,1.47
2017-11-19T14:22:59.495Z,1.50
2017-11-19T14:25:26.958Z,1.40
2017-11-19T14:27:54.430Z,1.40
2017-11-19T14:30:21.912Z,1.97
2017-11-19T14:32:49.368Z,1.83
2017-11-19T14:35:20.874Z,1.40
2017-11-19T14:37:48.350Z,1.00
2017-11-19T14:40:16.206Z,2.22
2017-11-19T14:42:43.879Z,2.30
2017-11-19T14:45:11.333Z,3.00
2017-11-19T14:47:38.811Z,2.23
2017-11-19T14:50:14.956Z,2.17
2017-11-19T14:52:42.390Z,1.43
2017-11-19T14:55:10.035Z,2.20
2017-11-19T14:57:37.919Z,1.58
2017-11-19T15:00:06.205Z,2.03
2017-11-19T15:02:33.658Z,1.57
2017-11-19T15:05:05.127Z,3.43
2017-11-19T15:07:32.580Z,1.90
2017-11-19T15:10:00.962Z,1.80
2017-11-19T15:12:28.402Z,2.10
2017-11-19T15:14:55.835Z,2.70
2017-11-19T15:17:24.470Z,1.73
2017-11-19T15:19:55.589Z,2.17
2017-11-19T15:22:23.046Z,1.97
2017-11-19T15:24:50.783Z,1.55
2017-11-19T15:27:18.285Z,2.13
2017-11-19T15:29:45.747Z,2.00
2017-11-19T15:32:13.193Z,1.77
2017-11-19T15:34:40.751Z,1.90
2017-11-19T15:37:08.184Z,3.43
2017-11-19T15:39:35.686Z,4.37
2017-11-19T15:42:03.132Z,2.90
2017-11-19T15:44:30.787Z,3.50
2017-11-19T15:49:32.589Z,1.83
2017-11-19T15:52:00.315Z,1.80
2017-11-19T15:54:27.754Z,2.67
2017-11-19T15:56:56.104Z,2.30
2017-11-19T15:59:24.506Z,2.10
2017-11-19T16:01:51.965Z,2.83
2017-11-19T16:04:19.438Z,2.10
2017-11-19T16:06:47.098Z,1.77
2017-11-19T16:09:14.570Z,1.60
2017-11-19T16:11:43.690Z,1.83
2017-11-19T16:14:11.140Z,2.50
2017-11-19T16:16:38.594Z,2.20
2017-11-19T16:19:06.050Z,1.50
2017-11-19T16:21:33.529Z,1.57
2017-11-19T16:24:01.463Z,1.50
2017-11-19T16:26:28.962Z,2.40
2017-11-19T16:28:57.462Z,2.30
2017-11-19T16:31:24.930Z,1.50
2017-11-19T16:33:52.382Z,1.60
2017-11-19T16:36:19.850Z,1.60
2017-11-19T16:38:47.304Z,1.67
2017-11-19T16:41:15.166Z,2.10
2017-11-19T16:43:43.206Z,3.03
2017-11-19T16:46:12.369Z,2.30
2017-11-19T16:48:40.737Z,1.90
2017-11-19T16:51:08.183Z,1.80
2017-11-19T16:53:35.645Z,2.20
2017-11-19T16:56:03.098Z,2.13
2017-11-19T16:58:30.542Z,2.40
2017-11-19T17:00:58.009Z,1.90
2017-11-19T17:03:25.474Z,2.17
2017-11-19T17:05:52.910Z,1.80
2017-11-19T17:08:23.761Z,2.43
2017-11-19T17:10:51.354Z,2.13
2017-11-19T17:13:19.512Z,2.77
2017-11-19T17:15:47.745Z,2.00
2017-11-19T17:18:15.190Z,2.33
2017-11-19T17:20:42.906Z,2.57
2017-11-19T17:23:10.342Z,1.65
2017-11-19T17:25:38.644Z,1.00
2017-11-19T17:28:06.706Z,1.73
2017-11-19T17:30:34.138Z,1.13
2017-11-19T17:33:01.622Z,1.92
2017-11-19T17:35:29.081Z,1.90
2017-11-19T17:38:01.851Z,2.50
2017-11-19T17:40:29.322Z,2.60
2017-11-19T17:42:59.223Z,1.60
2017-11-19T17:45:26.985Z,1.63
2017-11-19T17:47:54.486Z,1.45
2017-11-19T17:50:22.691Z,2.30
2017-11-19T17:52:53.633Z,1.87
2017-11-19T17:55:21.103Z,2.25
2017-11-19T17:57:48.552Z,2.58
2017-11-19T18:00:16.415Z,1.58
2017-11-19T18:02:43.842Z,1.90
2017-11-19T18:05:12.797Z,1.73
2017-11-19T18:07:44.863Z,1.13
2017-11-19T18:10:12.626Z,1.37
2017-11-19T18:12:40.112Z,1.80
2017-11-19T18:15:08.330Z,1.70
2017-11-19T18:17:35.824Z,2.10
2017-11-19T18:20:03.282Z,1.80
2017-11-19T18:22:32.406Z,2.23
2017-11-19T18:24:59.848Z,1.87
2017-11-19T18:27:27.298Z,2.33
2017-11-19T18:29:54.755Z,1.80
2017-11-19T18:32:22.198Z,1.50
2017-11-19T18:34:49.670Z,3.20
2017-11-19T18:37:17.906Z,2.10
2017-11-19T18:39:45.390Z,2.07
2017-11-19T18:42:12.846Z,2.77
2017-11-19T18:44:40.299Z,2.10
2017-11-19T18:47:07.794Z,2.20
2017-11-19T18:49:35.285Z,1.40
2017-11-19T18:52:02.775Z,2.33
2017-11-19T18:54:30.221Z,2.10
2017-11-19T18:56:59.542Z,1.90
2017-11-19T18:59:26.997Z,1.87
2017-11-19T19:01:54.434Z,1.95
2017-11-19T19:04:21.918Z,2.63
2017-11-19T19:06:50.444Z,3.20
2017-11-19T19:09:18.070Z,2.67
2017-11-19T19:11:45.522Z,1.33
2017-11-19T19:14:13.122Z,2.90
2017-11-19T19:16:40.620Z,3.58
2017-11-19T19:19:08.843Z,1.87
2017-11-19T19:21:36.722Z,2.55
2017-11-19T19:24:08.930Z,1.87
2017-11-19T19:26:36.477Z,2.58
2017-11-19T19:29:03.917Z,3.20
2017-11-19T19:31:32.272Z,2.87
2017-11-19T19:33:59.742Z,1.65
2017-11-19T19:36:27.798Z,2.55
2017-11-19T19:38:59.181Z,2.00
2017-11-19T19:41:27.181Z,2.47
2017-11-19T19:43:54.983Z,1.90
2017-11-19T19:46:22.453Z,1.50
2017-11-19T19:48:49.910Z,2.13
2017-11-19T19:51:17.349Z,2.43
2017-11-19T19:53:44.829Z,3.10
2017-11-19T19:56:12.285Z,3.05
2017-11-19T19:58:41.414Z,2.45
2017-11-19T20:01:08.846Z,3.57
2017-11-19T20:03:36.565Z,3.03
2017-11-19T20:06:04.213Z,1.75
2017-11-19T20:08:31.674Z,2.60
2017-11-19T20:11:00.302Z,3.48
2017-11-19T20:13:27.770Z,3.00
2017-11-19T20:15:55.983Z,3.08
2017-11-19T20:18:25.846Z,3.50
2017-11-19T20:20:53.941Z,3.67
2017-11-19T20:23:21.375Z,2.70
2017-11-19T20:25:51.924Z,3.72
2017-11-19T20:28:19.501Z,3.60
2017-11-19T20:30:47.041Z,3.12
2017-11-19T20:33:14.490Z,3.90
2017-11-19T20:35:42.725Z,3.17
2017-11-19T20:38:10.170Z,3.70
2017-11-19T20:40:41.101Z,3.60
2017-11-19T20:43:08.946Z,3.00
2017-11-19T20:45:36.777Z,3.43
2017-11-19T20:48:04.214Z,3.42
2017-11-19T20:50:31.677Z,2.90
2017-11-19T20:52:59.179Z,2.87
2017-11-19T20:55:30.641Z,3.20
2017-11-19T20:57:59.067Z,3.00
2017-11-19T21:00:26.606Z,3.53
2017-11-19T21:02:54.839Z,3.70
2017-11-19T21:05:23.538Z,3.50
2017-11-19T21:07:51.110Z,2.45
2017-11-19T21:10:18.763Z,2.73
2017-11-19T21:12:46.437Z,3.33
2017-11-19T21:15:13.902Z,3.08
2017-11-19T21:17:43.421Z,3.92
2017-11-19T21:20:12.545Z,2.95
2017-11-19T21:22:40.203Z,3.10
2017-11-19T21:25:08.449Z,3.28
2017-11-19T21:27:35.886Z,2.67
2017-11-19T21:30:03.355Z,4.23
2017-11-19T21:32:31.709Z,3.30
2017-11-19T21:34:59.166Z,2.43
2017-11-19T21:37:26.605Z,3.30
2017-11-19T21:39:54.622Z,2.95
2017-11-19T21:42:22.847Z,1.87
2017-11-19T21:44:51.449Z,3.20
2017-11-19T21:47:18.886Z,2.37
2017-11-19T21:49:47.085Z,2.30
2017-11-19T21:52:14.614Z,3.15
2017-11-19T21:54:42.070Z,3.53
2017-11-19T21:57:10.509Z,3.20
2017-11-19T21:59:38.738Z,2.53
2017-11-19T22:02:06.184Z,3.33
2017-11-19T22:04:35.166Z,2.16
2017-11-19T22:07:02.631Z,4.23
2017-11-19T22:09:30.056Z,3.22
2017-11-19T22:12:01.158Z,3.20
2017-11-19T22:14:30.109Z,3.10
2017-11-19T22:16:57.575Z,4.87
2017-11-19T22:19:25.010Z,2.80
2017-11-19T22:21:52.517Z,3.30
2017-11-19T22:24:20.139Z,2.90
2017-11-19T22:26:51.413Z,2.90
2017-11-19T22:29:18.899Z,3.30
2017-11-19T22:31:46.466Z,1.80
2017-11-19T22:34:13.917Z,3.80
2017-11-19T22:36:41.355Z,3.05
2017-11-19T22:39:08.845Z,3.22
2017-11-19T22:41:37.961Z,2.95
2017-11-19T22:44:05.398Z,3.17
2017-11-19T22:46:36.320Z,3.57
2017-11-19T22:49:03.774Z,4.15
2017-11-19T22:51:31.237Z,3.23
2017-11-19T22:53:58.676Z,2.92
2017-11-19T22:56:26.167Z,3.50
2017-11-19T22:58:53.594Z,3.80
2017-11-19T23:01:22.878Z,3.30
2017-11-19T23:03:50.313Z,4.13
2017-11-19T23:06:17.741Z,4.30
2017-11-19T23:08:45.192Z,3.37
2017-11-19T23:11:12.664Z,3.35
2017-11-19T23:13:43.587Z,3.50
2017-11-19T23:16:11.225Z,3.95
2017-11-19T23:18:38.737Z,3.50
2017-11-19T23:21:06.160Z,1.80
2017-11-19T23:23:33.598Z,2.43
2017-11-19T23:26:01.081Z,3.00
2017-11-19T23:28:32.280Z,4.10
2017-11-19T23:31:00.658Z,3.65
2017-11-19T23:33:28.161Z,3.92
2017-11-19T23:35:55.634Z,2.90
2017-11-19T23:38:23.270Z,3.90
2017-11-19T23:40:50.726Z,2.15
2017-11-19T23:43:23.379Z,3.00
2017-11-19T23:45:51.113Z,3.40
2017-11-19T23:48:18.589Z,3.30
2017-11-19T23:50:46.043Z,3.50
2017-11-19T23:53:13.625Z,2.77
2017-11-19T23:55:41.079Z,3.37
2017-11-19T23:58:09.289Z,3.04
